Time;durP1;ratioP1;P1;durP2;ratioP2;P2;SDS_P1;SDS_P2;PMS_P1;PMS_P2;Temp;Humidity;BMP_temperature;BMP_pressure;BME280_temperature;BME280_humidity;BME280_pressure;Samples;Min_cycle;Max_cycle;Signal;HPM_P1;HPM_P2
2021/12/25 00:01:21;;;;;;;7.22;4.43;;;0.80;99.90;;;;;;5097652;28;20044;-81
2021/12/25 00:03:49;;;;;;;7.72;5.10;;;0.80;99.90;;;;;;5098158;28;20050;-80
2021/12/25 00:06:15;;;;;;;7.55;4.90;;;0.90;99.90;;;;;;5100267;28;20047;-81
2021/12/25 00:08:41;;;;;;;9.27;5.47;;;0.80;99.90;;;;;;5095258;28;20047;-82
2021/12/25 00:11:08;;;;;;;7.80;5.18;;;0.80;99.90;;;;;;5096249;28;20044;-82
2021/12/25 00:13:40;;;;;;;6.88;4.97;;;0.80;99.90;;;;;;5095012;28;20039;-83
2021/12/25 00:16:07;;;;;;;6.13;4.80;;;0.70;99.90;;;;;;5095837;28;20056;-83
2021/12/25 00:18:34;;;;;;;9.25;7.10;;;0.70;99.90;;;;;;5096839;28;20048;-84
2021/12/25 00:21:00;;;;;;;8.88;6.07;;;0.70;99.90;;;;;;5096241;28;20114;-82
2021/12/25 00:23:26;;;;;;;8.90;5.47;;;0.70;99.90;;;;;;5095396;28;20453;-77
2021/12/25 00:26:00;;;;;;;9.02;4.70;;;0.70;99.90;;;;;;5102489;28;20087;-83
2021/12/25 00:28:50;;;;;;;8.77;5.78;;;0.80;99.90;;;;;;5095598;28;20481;-85
2021/12/25 00:36:11;;;;;;;9.05;4.97;;;0.70;99.90;;;;;;5095278;28;20098;-83
2021/12/25 00:38:38;;;;;;;8.10;5.03;;;0.50;99.90;;;;;;5094763;28;20047;-83
2021/12/25 00:41:04;;;;;;;9.82;5.40;;;0.60;99.90;;;;;;5095099;28;20101;-83
2021/12/25 00:43:30;;;;;;;8.10;5.53;;;0.60;99.90;;;;;;5096163;28;20123;-74
2021/12/25 00:45:56;;;;;;;7.97;5.25;;;0.60;99.90;;;;;;5095048;28;20123;-84
2021/12/25 00:48:22;;;;;;;7.53;4.65;;;0.60;99.90;;;;;;5104144;28;20071;-86
2021/12/25 00:50:48;;;;;;;6.10;4.13;;;0.60;99.90;;;;;;5114510;28;20046;-83
2021/12/25 00:53:14;;;;;;;8.75;5.07;;;0.50;99.90;;;;;;5106155;28;20489;-84
2021/12/25 00:55:39;;;;;;;6.53;3.92;;;0.50;99.90;;;;;;5104443;28;20047;-84
2021/12/25 00:58:05;;;;;;;6.32;3.88;;;0.60;99.90;;;;;;5109248;28;20044;-83
2021/12/25 01:00:31;;;;;;;6.30;3.28;;;0.50;99.90;;;;;;5094619;28;20040;-74
2021/12/25 01:02:56;;;;;;;3.55;3.05;;;0.50;99.90;;;;;;5096902;28;20039;-84
2021/12/25 01:05:22;;;;;;;7.22;2.80;;;0.50;99.90;;;;;;5101428;28;20039;-84
2021/12/25 01:07:48;;;;;;;4.55;2.90;;;0.50;99.90;;;;;;5094816;28;20500;-85
2021/12/25 01:10:18;;;;;;;5.22;2.50;;;0.50;99.90;;;;;;5114957;28;20050;-85
2021/12/25 01:12:57;;;;;;;5.43;2.63;;;0.40;99.90;;;;;;5113618;28;20055;-85
2021/12/25 01:15:32;;;;;;;3.42;2.47;;;0.40;99.90;;;;;;5094678;28;20075;-84
2021/12/25 01:31:23;;;;;;;4.97;3.00;;;0.20;99.90;;;;;;5114650;28;20047;-85
2021/12/25 01:39:27;;;;;;;3.00;2.08;;;0.10;99.90;;;;;;5094130;28;20056;-86
2021/12/25 01:49:51;;;;;;;3.17;2.05;;;0.00;99.90;;;;;;5098171;28;20085;-84
2021/12/25 01:52:19;;;;;;;3.97;2.40;;;0.00;99.90;;;;;;5113853;28;20132;-84
2021/12/25 01:54:45;;;;;;;6.00;2.58;;;-0.10;99.90;;;;;;5107802;28;20149;-85
2021/12/25 01:57:10;;;;;;;4.05;2.50;;;-0.10;99.90;;;;;;5093294;28;20505;-83
2021/12/25 01:59:36;;;;;;;4.05;2.15;;;-0.10;99.90;;;;;;5093760;28;20044;-83
2021/12/25 02:02:02;;;;;;;5.72;2.53;;;-0.10;99.90;;;;;;5092911;28;20048;-84
2021/12/25 02:04:28;;;;;;;4.13;2.17;;;-0.20;99.90;;;;;;5094582;28;20135;-85
2021/12/25 02:06:54;;;;;;;4.60;2.20;;;-0.30;99.90;;;;;;5103577;28;20071;-83
2021/12/25 02:09:20;;;;;;;3.38;2.05;;;-0.30;99.90;;;;;;5096983;28;20464;-84
2021/12/25 02:11:46;;;;;;;6.07;1.90;;;-0.30;99.90;;;;;;5092850;28;20044;-84
2021/12/25 02:14:11;;;;;;;4.05;2.00;;;-0.40;99.90;;;;;;5107034;28;20048;-84
2021/12/25 02:16:52;;;;;;;7.75;2.10;;;-0.40;99.90;;;;;;5111906;28;20055;-84
2021/12/25 02:19:31;;;;;;;4.70;2.30;;;-0.50;99.90;;;;;;5099431;28;20083;-84
2021/12/25 02:22:01;;;;;;;5.57;2.05;;;-0.50;99.90;;;;;;5092338;28;20489;-84
2021/12/25 02:24:27;;;;;;;2.67;1.58;;;-0.50;99.90;;;;;;5101889;28;20449;-84
2021/12/25 02:26:53;;;;;;;3.13;2.00;;;-0.60;99.90;;;;;;5094326;28;20382;-84
2021/12/25 02:29:18;;;;;;;3.63;1.52;;;-0.60;99.90;;;;;;5097019;28;20043;-84
2021/12/25 02:31:44;;;;;;;2.85;1.83;;;-0.60;99.90;;;;;;5092825;28;20040;-74
2021/12/25 02:34:10;;;;;;;3.67;1.60;;;-0.60;99.90;;;;;;5103650;28;20047;-84
2021/12/25 02:36:36;;;;;;;4.88;1.67;;;-0.70;99.90;;;;;;5100809;28;20050;-84
2021/12/25 02:39:02;;;;;;;3.20;1.60;;;-0.80;99.90;;;;;;5100036;28;20039;-85
2021/12/25 02:41:27;;;;;;;3.92;1.70;;;-0.80;99.90;;;;;;5092737;28;20058;-85
2021/12/25 02:43:54;;;;;;;4.07;1.63;;;-0.80;99.90;;;;;;5099559;28;20551;-85
2021/12/25 02:46:22;;;;;;;3.33;1.45;;;-0.90;99.90;;;;;;5110268;28;20122;-84
2021/12/25 02:48:47;;;;;;;3.55;1.45;;;-0.90;99.90;;;;;;5100685;28;20051;-74
2021/12/25 02:51:14;;;;;;;4.38;1.63;;;-0.90;99.90;;;;;;5092735;28;20075;-86
2021/12/25 02:53:40;;;;;;;3.10;1.67;;;-0.90;99.90;;;;;;5092848;28;20048;-85
2021/12/25 02:56:07;;;;;;;3.05;1.52;;;-1.00;99.90;;;;;;5095299;28;20752;-85
2021/12/25 02:58:33;;;;;;;2.85;1.30;;;-1.00;99.90;;;;;;5113308;28;20396;-85
2021/12/25 03:01:04;;;;;;;4.28;1.50;;;-1.00;99.90;;;;;;5105717;28;20028;-84
2021/12/25 03:03:29;;;;;;;;;;;-1.10;99.90;;;;;;5113516;28;20044;-86
2021/12/25 03:05:55;;;;;;;2.90;1.50;;;-1.10;99.90;;;;;;5111091;28;20292;-84
2021/12/25 03:08:21;;;;;;;2.83;1.50;;;-1.20;99.90;;;;;;5092653;28;20125;-84
2021/12/25 03:10:49;;;;;;;2.95;1.90;;;-1.20;99.90;;;;;;5092411;28;20094;-83
2021/12/25 03:15:49;;;;;;;3.97;1.60;;;-1.30;99.90;;;;;;5112829;28;20051;-82
2021/12/25 03:18:16;;;;;;;3.50;1.67;;;-1.30;99.90;;;;;;5101551;28;20537;-84
2021/12/25 03:20:45;;;;;;;2.78;1.50;;;-1.30;99.90;;;;;;5092539;28;20067;-83
2021/12/25 03:23:17;;;;;;;3.78;1.40;;;-1.40;99.90;;;;;;5092000;28;20048;-81
2021/12/25 03:25:44;;;;;;;4.60;2.00;;;-1.40;99.90;;;;;;5092606;28;20040;-83
2021/12/25 03:28:10;;;;;;;3.85;1.50;;;-1.40;99.90;;;;;;5106495;28;20044;-82
2021/12/25 03:30:39;;;;;;;3.55;1.35;;;-1.50;99.90;;;;;;5105184;28;20048;-83
2021/12/25 03:33:11;;;;;;;3.10;1.20;;;-1.50;99.90;;;;;;5091396;28;20050;-81
2021/12/25 03:35:37;;;;;;;4.65;1.35;;;-1.50;99.90;;;;;;5091552;28;20064;-83
2021/12/25 03:38:09;;;;;;;2.47;1.23;;;-1.50;99.90;;;;;;5102969;28;20066;-83
2021/12/25 03:40:35;;;;;;;2.83;1.35;;;-1.50;99.90;;;;;;5110901;28;20052;-81
2021/12/25 03:43:00;;;;;;;1.27;1.00;;;-1.50;99.90;;;;;;5095258;28;20557;-83
2021/12/25 03:45:30;;;;;;;2.55;1.20;;;-1.60;99.90;;;;;;5096406;28;20047;-82
2021/12/25 03:48:06;;;;;;;1.92;1.10;;;-1.60;99.90;;;;;;5102664;28;20043;-74
2021/12/25 03:58:47;;;;;;;2.55;0.82;;;-1.80;99.90;;;;;;5115605;28;20561;-81
2021/12/25 04:01:46;;;;;;;2.67;1.15;;;-1.80;99.90;;;;;;5099442;28;20036;-81
2021/12/25 04:04:06;;;;;;;4.45;0.98;;;-1.80;99.90;;;;;;5095829;28;20484;-82
2021/12/25 04:06:33;;;;;;;2.10;1.20;;;-1.90;99.90;;;;;;5096015;28;20052;-80
2021/12/25 04:09:01;;;;;;;1.25;0.80;;;-1.90;99.90;;;;;;5106037;28;20097;-77
2021/12/25 04:11:30;;;;;;;2.20;1.00;;;-2.00;99.90;;;;;;5114864;28;20244;-81
2021/12/25 04:13:56;;;;;;;2.05;1.10;;;-2.00;99.90;;;;;;5104276;27;20562;-81
2021/12/25 04:16:22;;;;;;;2.83;0.95;;;-2.10;99.90;;;;;;5094893;28;20039;-81
2021/12/25 04:18:48;;;;;;;1.35;1.13;;;-2.10;99.90;;;;;;5105137;28;20044;-80
2021/12/25 04:21:14;;;;;;;2.40;0.90;;;-2.10;99.90;;;;;;5115249;28;20472;-80
2021/12/25 04:23:42;;;;;;;2.50;0.80;;;-2.20;99.90;;;;;;5107645;28;20489;-80
2021/12/25 04:26:08;;;;;;;2.83;1.00;;;-2.20;99.90;;;;;;5095098;28;20050;-81
2021/12/25 04:28:46;;;;;;;3.33;1.13;;;-2.20;99.90;;;;;;5099023;28;20115;-81
2021/12/25 05:03:56;;;;;;;2.27;1.10;;;-2.50;99.90;;;;;;5095669;28;20443;-80
2021/12/25 05:06:24;;;;;;;0.30;0.30;;;-2.60;99.90;;;;;;5093914;28;20119;-80
2021/12/25 05:08:54;;;;;;;1.63;0.53;;;-2.60;99.90;;;;;;5094774;28;20062;-80
2021/12/25 05:11:21;;;;;;;1.27;1.03;;;-2.60;99.90;;;;;;5112035;28;20042;-80
2021/12/25 05:13:49;;;;;;;2.37;1.30;;;-2.60;99.90;;;;;;5099256;28;20043;-79
2021/12/25 05:16:16;;;;;;;1.40;1.30;;;-2.70;99.90;;;;;;5093871;28;20052;-79
2021/12/25 05:18:42;;;;;;;1.67;1.40;;;-2.70;99.90;;;;;;5105832;28;20053;-79
2021/12/25 05:21:08;;;;;;;1.30;1.00;;;-2.70;99.90;;;;;;5106939;28;20658;-78
2021/12/25 05:23:35;;;;;;;0.60;0.40;;;-2.70;99.90;;;;;;5114678;28;20043;-80
2021/12/25 05:26:01;;;;;;;2.33;1.40;;;-2.60;99.90;;;;;;5102517;28;20048;-80
2021/12/25 05:28:37;;;;;;;2.33;1.23;;;-2.60;99.90;;;;;;5093700;28;20086;-80
2021/12/25 05:31:03;;;;;;;1.60;1.00;;;-2.60;99.90;;;;;;5105738;28;20442;-79
2021/12/25 05:33:29;;;;;;;1.77;1.10;;;-2.60;99.90;;;;;;5092736;28;20052;-80
2021/12/25 05:35:54;;;;;;;2.37;1.10;;;-2.70;99.90;;;;;;5102971;28;20057;-79
2021/12/25 05:38:21;;;;;;;2.93;1.20;;;-2.60;99.90;;;;;;5110586;28;20112;-79
2021/12/25 05:40:47;;;;;;;0.40;0.40;;;-2.70;99.90;;;;;;5100141;28;20086;-80
2021/12/25 05:43:13;;;;;;;1.50;1.00;;;-2.80;99.90;;;;;;5113093;28;20043;-79
2021/12/25 05:45:39;;;;;;;0.50;0.40;;;-2.70;99.90;;;;;;5095128;28;20052;-80
2021/12/25 05:48:05;;;;;;;1.20;0.90;;;-2.70;99.90;;;;;;5094021;28;20048;-79
2021/12/25 05:50:32;;;;;;;2.77;0.90;;;-2.70;99.90;;;;;;5100443;28;20039;-79
2021/12/25 05:52:57;;;;;;;2.47;0.90;;;-2.70;99.90;;;;;;5112030;28;20055;-80
2021/12/25 05:55:25;;;;;;;1.97;0.80;;;-2.70;99.90;;;;;;5093214;28;20397;-79
2021/12/25 05:57:51;;;;;;;2.40;0.90;;;-2.70;99.90;;;;;;5093549;28;20055;-78
2021/12/25 06:00:17;;;;;;;2.23;1.03;;;-2.70;99.90;;;;;;5110476;28;20051;-80
2021/12/25 06:02:44;;;;;;;1.07;0.97;;;-2.70;99.90;;;;;;5093238;28;20489;-78
2021/12/25 06:05:10;;;;;;;1.30;1.00;;;-2.80;99.90;;;;;;5112739;28;20055;-80
2021/12/25 06:07:36;;;;;;;2.20;1.00;;;-2.70;99.90;;;;;;5113446;28;20040;-79
2021/12/25 06:10:06;;;;;;;1.17;0.70;;;-2.80;99.90;;;;;;5095271;28;20043;-79
2021/12/25 06:12:32;;;;;;;1.98;0.77;;;-2.70;99.90;;;;;;5110507;28;20644;-79
2021/12/25 06:15:01;;;;;;;0.93;0.60;;;-2.80;99.90;;;;;;5096771;28;20123;-81
2021/12/25 06:17:27;;;;;;;1.40;0.50;;;-2.80;99.90;;;;;;5092779;28;20048;-79
2021/12/25 06:19:53;;;;;;;1.73;0.83;;;-2.80;99.90;;;;;;5099607;28;20048;-79
2021/12/25 06:22:20;;;;;;;0.20;0.20;;;-2.90;99.90;;;;;;5105364;28;20484;-79
2021/12/25 06:24:49;;;;;;;2.63;0.80;;;-2.90;99.90;;;;;;5113520;28;20054;-80
2021/12/25 06:27:20;;;;;;;1.50;0.30;;;-2.90;99.90;;;;;;5103372;28;20048;-73
2021/12/25 06:29:46;;;;;;;2.35;1.25;;;-3.00;99.90;;;;;;5093490;28;20044;-80
2021/12/25 06:32:12;;;;;;;1.20;0.70;;;-3.00;99.90;;;;;;5100214;28;20066;-80
2021/12/25 06:34:38;;;;;;;1.10;0.80;;;-3.00;99.90;;;;;;5095188;28;20104;-79
2021/12/25 06:37:04;;;;;;;2.23;0.80;;;-3.10;99.90;;;;;;5113349;28;20044;-79
2021/12/25 06:39:31;;;;;;;0.47;0.43;;;-3.00;99.90;;;;;;5111126;28;20485;-80
2021/12/25 06:41:57;;;;;;;2.60;0.77;;;-3.10;99.90;;;;;;5099655;28;20046;-79
2021/12/25 06:44:27;;;;;;;1.43;0.80;;;-3.10;99.90;;;;;;5112402;28;20047;-79
2021/12/25 06:46:53;;;;;;;2.73;1.00;;;-3.10;99.90;;;;;;5092490;28;20052;-80
2021/12/25 06:49:20;;;;;;;1.87;0.80;;;-3.10;99.90;;;;;;5092241;28;20504;-73
2021/12/25 06:51:46;;;;;;;2.80;0.90;;;-3.10;99.90;;;;;;5108941;28;20134;-79
2021/12/25 06:54:12;;;;;;;3.23;1.00;;;-3.10;99.90;;;;;;5092914;28;20110;-79
2021/12/25 06:56:38;;;;;;;2.00;1.00;;;-3.20;99.90;;;;;;5108409;28;20484;-79
2021/12/25 06:59:05;;;;;;;1.83;1.00;;;-3.20;99.90;;;;;;5097880;28;20043;-79
2021/12/25 07:01:31;;;;;;;1.97;0.90;;;-3.20;99.90;;;;;;5106956;28;20487;-79
2021/12/25 07:03:57;;;;;;;1.83;1.00;;;-3.30;99.90;;;;;;5112381;28;20116;-79
2021/12/25 07:06:22;;;;;;;2.00;0.93;;;-3.30;99.90;;;;;;5097836;28;20042;-79
2021/12/25 07:08:49;;;;;;;1.60;0.70;;;-3.30;99.90;;;;;;5092959;28;20076;-79
2021/12/25 07:11:16;;;;;;;1.67;0.80;;;-3.40;99.90;;;;;;5092376;28;20469;-79
2021/12/25 07:13:44;;;;;;;2.20;0.63;;;-3.30;99.90;;;;;;5094779;28;20044;-79
2021/12/25 07:16:10;;;;;;;1.50;0.70;;;-3.40;99.90;;;;;;5117196;28;20066;-80
2021/12/25 07:18:36;;;;;;;2.13;0.90;;;-3.40;99.90;;;;;;5116146;28;20403;-77
2021/12/25 07:21:03;;;;;;;0.40;0.40;;;-3.40;99.90;;;;;;5096809;28;20040;-80
2021/12/25 07:23:29;;;;;;;0.97;0.70;;;-3.40;99.90;;;;;;5096808;28;20123;-79
2021/12/25 07:25:54;;;;;;;3.10;0.90;;;-3.40;99.90;;;;;;5096774;28;20181;-79
2021/12/25 07:28:20;;;;;;;1.10;0.50;;;-3.40;99.90;;;;;;5102864;28;20055;-79
2021/12/25 07:30:50;;;;;;;1.77;0.80;;;-3.40;99.90;;;;;;5116353;27;20464;-80
2021/12/25 07:33:16;;;;;;;1.37;0.80;;;-3.40;99.90;;;;;;5115206;27;20048;-79
2021/12/25 07:35:42;;;;;;;1.00;0.83;;;-3.50;99.90;;;;;;5104126;28;20044;-79
2021/12/25 07:38:08;;;;;;;0.37;0.30;;;-3.50;99.90;;;;;;5099516;28;20089;-79
2021/12/25 07:40:34;;;;;;;4.03;1.10;;;-3.50;99.90;;;;;;5116145;28;20043;-79
2021/12/25 07:43:00;;;;;;;1.37;0.77;;;-3.50;99.90;;;;;;5114955;28;20127;-79
2021/12/25 07:45:25;;;;;;;0.37;0.37;;;-3.50;99.90;;;;;;5095965;28;20085;-72
2021/12/25 07:47:59;;;;;;;2.53;0.90;;;-3.40;99.90;;;;;;5099009;28;20062;-79
2021/12/25 07:50:25;;;;;;;2.47;0.90;;;-3.40;99.90;;;;;;5096086;28;20126;-72
2021/12/25 07:52:51;;;;;;;2.23;0.90;;;-3.40;99.90;;;;;;5106844;28;20052;-80
2021/12/25 07:55:18;;;;;;;3.30;1.00;;;-3.40;99.90;;;;;;5098501;28;20090;-79
2021/12/25 07:57:43;;;;;;;1.67;1.10;;;-3.40;99.90;;;;;;5094884;28;20048;-80
2021/12/25 08:00:12;;;;;;;2.00;0.90;;;-3.40;99.90;;;;;;5095128;28;20032;-79
2021/12/25 08:02:38;;;;;;;0.30;0.30;;;-3.40;99.90;;;;;;5094972;28;20450;-79
2021/12/25 08:05:04;;;;;;;2.17;0.80;;;-3.30;99.90;;;;;;5101380;28;20048;-78
2021/12/25 08:07:30;;;;;;;1.80;1.60;;;-3.40;99.90;;;;;;5115653;28;20040;-78
2021/12/25 08:10:03;;;;;;;1.60;0.90;;;-3.30;99.90;;;;;;5111534;27;20054;-79
2021/12/25 08:12:29;;;;;;;2.03;0.70;;;-3.40;99.90;;;;;;5096246;28;20048;-73
2021/12/25 08:14:55;;;;;;;3.77;1.10;;;-3.30;99.90;;;;;;5096132;28;20106;-77
2021/12/25 08:17:20;;;;;;;0.60;0.60;;;-3.30;99.90;;;;;;5115054;28;20095;-76
2021/12/25 08:19:46;;;;;;;1.73;0.70;;;-3.30;99.90;;;;;;5103512;28;20050;-78
2021/12/25 08:22:12;;;;;;;0.20;0.20;;;-3.30;99.90;;;;;;5095710;28;20144;-76
2021/12/25 08:24:37;;;;;;;7.47;1.03;;;-3.20;99.90;;;;;;5098569;28;20040;-76
2021/12/25 08:27:05;;;;;;;1.07;0.57;;;-3.20;99.90;;;;;;5095212;28;20050;-76
2021/12/25 08:29:31;;;;;;;1.53;0.93;;;-3.20;99.90;;;;;;5095283;28;20059;-73
2021/12/25 08:31:58;;;;;;;2.10;0.90;;;-3.30;99.90;;;;;;5094597;28;20125;-78
2021/12/25 08:34:23;;;;;;;0.50;0.37;;;-3.20;99.90;;;;;;5099538;28;20124;-75
2021/12/25 08:36:49;;;;;;;3.17;1.23;;;-3.20;99.90;;;;;;5113842;28;20143;-75
2021/12/25 08:39:15;;;;;;;2.37;0.83;;;-3.20;99.90;;;;;;5088603;27;20397;-75
2021/12/25 08:41:41;;;;;;;0.77;0.40;;;-3.20;99.90;;;;;;5088431;28;20151;-75
2021/12/25 08:44:19;;;;;;;1.50;0.80;;;-3.20;99.90;;;;;;5094069;28;20051;-74
2021/12/25 08:46:55;;;;;;;0.73;0.40;;;-3.20;99.90;;;;;;5097913;28;20047;-74
2021/12/25 08:49:24;;;;;;;1.47;0.70;;;-3.20;99.90;;;;;;5108987;28;20381;-74
2021/12/25 08:51:52;;;;;;;1.27;0.63;;;-3.20;99.90;;;;;;5099582;28;20188;-75
2021/12/25 08:54:18;;;;;;;2.10;1.00;;;-3.20;99.90;;;;;;5103072;28;20066;-75
2021/12/25 08:56:43;;;;;;;2.17;0.80;;;-3.20;99.90;;;;;;5111886;28;20130;-75
2021/12/25 08:59:10;;;;;;;1.43;0.93;;;-3.20;99.90;;;;;;5101747;28;20036;-75
2021/12/25 09:01:36;;;;;;;1.80;0.80;;;-3.10;99.90;;;;;;5090970;28;20044;-74
2021/12/25 09:04:02;;;;;;;2.37;0.90;;;-3.10;99.90;;;;;;5093444;28;20032;-74
2021/12/25 09:06:28;;;;;;;2.80;0.83;;;-3.10;99.90;;;;;;5090577;28;20166;-74
2021/12/25 09:08:54;;;;;;;1.50;1.00;;;-3.10;99.90;;;;;;5090964;28;20120;-74
2021/12/25 09:11:21;;;;;;;1.77;0.40;;;-3.10;99.90;;;;;;5091075;28;20488;-74
2021/12/25 09:13:48;;;;;;;2.43;0.90;;;-3.10;99.90;;;;;;5098717;28;20460;-74
2021/12/25 09:16:14;;;;;;;2.80;1.00;;;-3.10;99.90;;;;;;5098813;28;20070;-74
2021/12/25 09:18:39;;;;;;;1.10;0.50;;;-3.10;99.90;;;;;;5090686;28;20052;-73
2021/12/25 09:21:06;;;;;;;1.17;0.40;;;-3.10;99.90;;;;;;5100724;28;20446;-76
2021/12/25 09:23:31;;;;;;;1.43;0.40;;;-3.00;99.90;;;;;;5109024;28;20088;-75
2021/12/25 09:25:57;;;;;;;2.30;1.10;;;-3.00;99.90;;;;;;5110420;28;20055;-73
2021/12/25 09:28:23;;;;;;;2.90;1.00;;;-3.00;99.90;;;;;;5097387;28;20506;-75
2021/12/25 09:30:49;;;;;;;1.47;0.50;;;-2.90;99.90;;;;;;5096085;28;20040;-75
2021/12/25 09:33:15;;;;;;;1.70;0.90;;;-2.90;99.90;;;;;;5090026;28;20047;-75
2021/12/25 09:35:41;;;;;;;2.33;0.77;;;-2.80;99.90;;;;;;5089359;28;20516;-73
2021/12/25 09:38:07;;;;;;;1.77;0.60;;;-2.80;99.90;;;;;;5090925;28;20059;-76
2021/12/25 09:40:33;;;;;;;2.67;0.80;;;-2.80;99.90;;;;;;5093857;28;20040;-74
2021/12/25 09:42:59;;;;;;;3.03;1.10;;;-2.70;99.90;;;;;;5101936;28;20050;-74
2021/12/25 09:45:25;;;;;;;1.08;0.80;;;-2.80;99.90;;;;;;5091026;28;20377;-75
2021/12/25 09:47:50;;;;;;;1.47;0.53;;;-2.70;99.90;;;;;;5090001;28;20044;-75
2021/12/25 09:50:16;;;;;;;3.07;1.07;;;-2.70;99.90;;;;;;5090620;28;20052;-75
2021/12/25 09:52:42;;;;;;;1.03;0.50;;;-2.70;99.90;;;;;;5089674;28;20044;-73
2021/12/25 09:55:11;;;;;;;4.07;1.03;;;-2.70;99.90;;;;;;5089641;28;20055;-76
2021/12/25 09:57:37;;;;;;;2.10;1.00;;;-2.60;99.90;;;;;;5090800;28;20046;-75
2021/12/25 10:00:13;;;;;;;0.93;0.40;;;-2.50;99.90;;;;;;5089277;28;20071;-75
2021/12/25 10:02:48;;;;;;;3.38;1.15;;;-2.50;99.90;;;;;;5089892;28;20032;-75
2021/12/25 10:05:54;;;;;;;1.20;1.00;;;-2.50;99.90;;;;;;5089288;28;20480;-75
2021/12/25 10:08:29;;;;;;;2.13;0.40;;;-2.40;99.90;;;;;;5056248;28;20052;-75
2021/12/25 10:11:00;;;;;;;1.67;0.73;;;-2.40;99.90;;;;;;5094922;28;20075;-75
2021/12/25 10:13:30;;;;;;;0.40;0.40;;;-2.30;99.90;;;;;;5108340;27;20070;-75
2021/12/25 10:16:18;;;;;;;3.30;0.90;;;-2.20;99.90;;;;;;5089133;28;20589;-75
2021/12/25 10:18:44;;;;;;;1.95;0.80;;;-2.10;99.90;;;;;;5088378;28;20589;-73
2021/12/25 10:21:23;;;;;;;2.05;1.10;;;-2.00;99.90;;;;;;5102102;28;20040;-75
2021/12/25 10:24:27;;;;;;;3.10;0.80;;;-2.00;99.90;;;;;;5087887;28;20655;-75
2021/12/25 10:27:07;;;;;;;1.67;0.80;;;-1.90;99.90;;;;;;5067523;28;20056;-76
2021/12/25 10:29:32;;;;;;;1.42;0.90;;;-1.80;99.10;;;;;;5088289;28;20040;-75
2021/12/25 10:32:02;;;;;;;3.25;1.27;;;-1.80;99.90;;;;;;5088764;28;20050;-76
2021/12/25 10:34:30;;;;;;;1.65;1.00;;;-1.70;99.60;;;;;;5089513;28;20491;-73
2021/12/25 10:37:11;;;;;;;1.85;0.90;;;-1.60;98.10;;;;;;5089271;28;20135;-75
2021/12/25 10:39:37;;;;;;;2.50;1.10;;;-1.50;99.10;;;;;;5083465;28;20044;-74
2021/12/25 10:42:12;;;;;;;2.78;1.00;;;-1.50;99.90;;;;;;5101968;28;20040;-75
2021/12/25 10:44:41;;;;;;;1.88;0.90;;;-1.40;98.30;;;;;;5102194;28;20047;-73
2021/12/25 10:47:25;;;;;;;2.75;1.08;;;-1.40;98.20;;;;;;5095042;28;20039;-75
2021/12/25 10:49:55;;;;;;;1.92;0.88;;;-1.40;96.90;;;;;;5094408;28;20520;-75
2021/12/25 10:52:24;;;;;;;1.57;0.90;;;-1.40;97.30;;;;;;5093532;28;20047;-75
2021/12/25 10:54:59;;;;;;;1.88;0.77;;;-1.40;97.10;;;;;;5093272;28;20048;-73
2021/12/25 10:57:32;;;;;;;1.55;0.90;;;-1.40;97.30;;;;;;5109424;28;20044;-74
2021/12/25 10:59:59;;;;;;;2.15;1.00;;;-1.40;97.40;;;;;;5099536;28;20043;-73
2021/12/25 11:02:39;;;;;;;2.58;0.98;;;-1.40;97.10;;;;;;5097347;28;20036;-76
2021/12/25 11:05:21;;;;;;;2.88;0.90;;;-1.40;97.00;;;;;;5089343;28;20181;-75
2021/12/25 11:08:01;;;;;;;1.90;1.00;;;-1.40;96.70;;;;;;5090796;28;20046;-74
2021/12/25 11:10:29;;;;;;;1.65;0.90;;;-1.40;98.00;;;;;;5097538;28;20779;-74
2021/12/25 11:12:56;;;;;;;2.05;0.80;;;-1.40;97.90;;;;;;5088860;28;20044;-74
2021/12/25 11:15:26;;;;;;;1.52;0.85;;;-1.40;95.80;;;;;;5100008;28;20079;-74
2021/12/25 11:17:54;;;;;;;1.20;0.50;;;-1.40;97.30;;;;;;5100017;28;20123;-73
2021/12/25 11:20:30;;;;;;;1.98;0.90;;;-1.50;95.30;;;;;;5089839;28;20044;-75
2021/12/25 11:22:58;;;;;;;2.80;1.00;;;-1.50;97.00;;;;;;5064024;28;20037;-73
2021/12/25 11:25:27;;;;;;;1.75;1.15;;;-1.40;97.90;;;;;;5096723;28;20052;-73
2021/12/25 11:27:54;;;;;;;1.65;0.80;;;-1.40;98.10;;;;;;5086625;28;20050;-73
2021/12/25 11:30:24;;;;;;;3.15;1.10;;;-1.40;96.50;;;;;;5109493;28;20078;-77
2021/12/25 11:32:51;;;;;;;1.90;0.93;;;-1.40;96.80;;;;;;5091825;28;20568;-74
2021/12/25 11:35:18;;;;;;;2.03;0.80;;;-1.30;97.50;;;;;;5110389;28;20074;-76
2021/12/25 11:37:47;;;;;;;4.78;0.90;;;-1.20;95.70;;;;;;5112290;28;20054;-76
2021/12/25 11:40:14;;;;;;;2.50;0.85;;;-1.20;94.90;;;;;;5111215;28;20681;-75
2021/12/25 11:42:46;;;;;;;1.95;0.80;;;-1.30;95.40;;;;;;5094903;28;20515;-74
2021/12/25 11:45:18;;;;;;;2.78;0.70;;;-1.30;96.70;;;;;;5099037;28;20050;-74
2021/12/25 11:47:47;;;;;;;2.58;0.85;;;-1.30;94.60;;;;;;5082362;28;20043;-73
2021/12/25 11:50:23;;;;;;;3.97;1.00;;;-1.30;94.10;;;;;;5095631;28;20039;-81
2021/12/25 11:53:23;;;;;;;2.60;0.82;;;-1.20;93.80;;;;;;5085960;28;20058;-77
2021/12/25 11:58:59;;;;;;;2.67;0.93;;;-1.10;92.80;;;;;;5092520;28;20055;-78
2021/12/25 12:01:27;;;;;;;1.60;1.00;;;-1.20;93.00;;;;;;5092861;28;20052;-77
2021/12/25 12:03:57;;;;;;;2.05;1.00;;;-1.20;95.20;;;;;;5096194;28;20051;-78
2021/12/25 12:06:48;;;;;;;1.50;0.90;;;-1.10;94.90;;;;;;5095525;28;20523;-78
2021/12/25 12:09:31;;;;;;;1.77;0.90;;;-1.10;94.00;;;;;;5095706;28;20053;-77
2021/12/25 12:12:03;;;;;;;3.65;0.82;;;-1.10;92.90;;;;;;5095760;28;20123;-76
2021/12/25 12:14:30;;;;;;;2.00;1.00;;;-1.10;92.40;;;;;;5095908;28;20052;-79
2021/12/25 12:16:59;;;;;;;2.35;1.10;;;-1.10;93.10;;;;;;5096024;28;20388;-78
2021/12/25 12:19:36;;;;;;;0.85;0.68;;;-1.10;95.10;;;;;;5095805;28;20051;-77
2021/12/25 12:22:28;;;;;;;1.90;0.90;;;-1.10;94.90;;;;;;5094197;28;20379;-78
2021/12/25 12:27:59;;;;;;;2.72;1.02;;;-1.00;92.60;;;;;;5095739;28;20528;-78
2021/12/25 12:30:31;;;;;;;3.15;1.10;;;-1.00;93.70;;;;;;5094901;28;20056;-78
2021/12/25 12:32:58;;;;;;;2.35;1.40;;;-1.00;92.90;;;;;;5095625;28;20496;-78
2021/12/25 12:35:33;;;;;;;2.65;1.13;;;-1.00;92.80;;;;;;5095124;28;20044;-78
2021/12/25 12:38:25;;;;;;;2.22;0.90;;;-1.00;93.30;;;;;;5094840;28;20044;-77
2021/12/25 12:41:28;;;;;;;1.40;0.90;;;-1.00;93.50;;;;;;5095509;28;20095;-78
2021/12/25 12:44:03;;;;;;;3.10;1.00;;;-0.90;91.50;;;;;;5095491;28;20520;-78
2021/12/25 12:46:47;;;;;;;1.88;1.20;;;-0.90;91.10;;;;;;5095412;28;20083;-77
2021/12/25 12:49:16;;;;;;;1.02;0.80;;;-0.90;92.40;;;;;;5094447;28;20071;-78
2021/12/25 12:51:42;;;;;;;1.30;0.75;;;-0.90;93.30;;;;;;5095407;28;20109;-77
2021/12/25 12:54:09;;;;;;;2.38;1.10;;;-0.90;92.30;;;;;;5094767;28;20056;-78
2021/12/25 12:56:36;;;;;;;2.08;0.90;;;-0.90;92.90;;;;;;5095491;28;20048;-78
2021/12/25 12:59:03;;;;;;;1.77;0.98;;;-0.80;91.10;;;;;;5095177;28;20124;-78
2021/12/25 13:01:29;;;;;;;1.80;1.00;;;-0.80;88.40;;;;;;5094706;28;20476;-77
2021/12/25 13:04:01;;;;;;;1.48;0.80;;;-0.80;85.60;;;;;;5094766;28;20392;-77
2021/12/25 13:06:29;;;;;;;1.65;1.00;;;-0.80;86.80;;;;;;5094590;28;20052;-77
2021/12/25 13:09:00;;;;;;;1.58;0.90;;;-0.80;88.00;;;;;;5094790;28;20048;-78
2021/12/25 13:11:32;;;;;;;1.42;0.90;;;-0.80;89.00;;;;;;5093685;28;20389;-77
2021/12/25 13:14:00;;;;;;;2.65;1.20;;;-0.90;91.30;;;;;;5094921;28;20052;-77
2021/12/25 13:16:33;;;;;;;3.15;1.30;;;-0.80;92.90;;;;;;5094380;28;20052;-77
2021/12/25 13:19:03;;;;;;;2.28;1.10;;;-0.80;92.90;;;;;;5094541;28;20118;-78
2021/12/25 13:21:30;;;;;;;2.30;1.08;;;-0.80;91.20;;;;;;5094511;28;20086;-78
2021/12/25 13:23:58;;;;;;;3.13;1.27;;;-0.70;91.20;;;;;;5094872;28;20131;-77
2021/12/25 13:26:34;;;;;;;2.80;1.30;;;-0.80;90.20;;;;;;5094304;28;20047;-77
2021/12/25 13:29:06;;;;;;;3.55;2.40;;;-0.80;91.50;;;;;;5094650;28;20127;-78
2021/12/25 13:31:35;;;;;;;3.40;1.65;;;-0.70;91.30;;;;;;5094524;28;20036;-78
2021/12/25 13:34:05;;;;;;;4.20;1.13;;;-0.70;92.40;;;;;;5094025;28;20051;-78
2021/12/25 13:36:34;;;;;;;4.43;1.30;;;-0.70;89.80;;;;;;5093686;28;20044;-78
2021/12/25 13:39:04;;;;;;;1.67;1.20;;;-0.70;91.10;;;;;;5094372;28;20047;-79
2021/12/25 13:41:30;;;;;;;2.53;1.10;;;-0.60;88.60;;;;;;5093844;28;20055;-78
2021/12/25 13:44:09;;;;;;;1.35;0.95;;;-0.70;88.80;;;;;;5094325;28;20044;-78
2021/12/25 13:46:47;;;;;;;2.60;1.20;;;-0.80;90.70;;;;;;5093940;28;20055;-78
2021/12/25 13:49:43;;;;;;;2.92;1.70;;;-0.80;90.50;;;;;;5093904;28;20044;-78
2021/12/25 13:52:21;;;;;;;4.05;1.60;;;-0.80;90.60;;;;;;5093828;28;20052;-78
2021/12/25 13:54:56;;;;;;;3.15;1.20;;;-0.90;90.00;;;;;;5094305;28;20056;-78
2021/12/25 13:57:24;;;;;;;3.30;1.30;;;-0.90;91.10;;;;;;5093931;28;20090;-79
2021/12/25 13:59:57;;;;;;;2.58;1.20;;;-0.90;91.30;;;;;;5094511;28;20094;-78
2021/12/25 14:02:24;;;;;;;1.83;1.13;;;-0.90;91.40;;;;;;5093231;28;20051;-78
2021/12/25 14:04:52;;;;;;;1.58;1.13;;;-1.00;91.60;;;;;;5093915;28;20047;-78
2021/12/25 14:07:27;;;;;;;2.83;1.20;;;-1.00;90.50;;;;;;5093367;28;20047;-79
2021/12/25 14:09:58;;;;;;;2.08;1.20;;;-1.00;91.60;;;;;;5094004;28;20083;-78
2021/12/25 14:12:25;;;;;;;3.40;1.60;;;-0.90;90.50;;;;;;5093358;28;20044;-79
2021/12/25 14:14:52;;;;;;;2.90;1.70;;;-1.00;89.30;;;;;;5093672;28;20044;-79
2021/12/25 14:17:18;;;;;;;2.38;1.48;;;-1.00;88.10;;;;;;5092869;28;20473;-78
2021/12/25 14:19:44;;;;;;;3.38;1.52;;;-1.00;87.10;;;;;;5093547;28;20473;-79